createdAt,value
2018-02-06T00:00:12.460Z,17.10
2018-02-06T00:01:12.390Z,16.90
2018-02-06T00:02:12.369Z,17.40
2018-02-06T00:03:12.338Z,15.90
2018-02-06T00:04:12.413Z,17.40
2018-02-06T00:05:12.288Z,17.10
2018-02-06T00:06:12.275Z,17.60
2018-02-06T00:07:12.246Z,17.70
2018-02-06T00:08:12.365Z,17.40
2018-02-06T00:09:12.191Z,15.70
2018-02-06T00:10:12.203Z,16.90
2018-02-06T00:11:12.139Z,16.50
2018-02-06T00:12:12.269Z,16.10
2018-02-06T00:13:12.090Z,16.70
2018-02-06T00:14:12.183Z,16.40
2018-02-06T00:15:12.041Z,16.40
2018-02-06T00:16:12.024Z,18.50
2018-02-06T00:17:11.990Z,16.00
2018-02-06T00:18:11.966Z,15.80
2018-02-06T00:19:11.942Z,17.00
2018-02-06T00:20:11.922Z,16.40
2018-02-06T00:21:11.893Z,16.40
2018-02-06T00:22:11.880Z,16.90
2018-02-06T00:23:11.844Z,16.20
2018-02-06T00:24:11.817Z,17.60
2018-02-06T00:25:11.790Z,17.30
2018-02-06T00:26:11.771Z,16.20
2018-02-06T00:27:11.742Z,16.40
2018-02-06T00:28:11.713Z,17.40
2018-02-06T00:29:11.693Z,17.50
2018-02-06T00:30:11.669Z,16.60
2018-02-06T00:31:11.658Z,16.80
2018-02-06T00:32:11.617Z,16.50
2018-02-06T00:33:11.592Z,17.50
2018-02-06T00:34:11.571Z,15.90
2018-02-06T00:35:11.540Z,16.40
2018-02-06T00:36:11.519Z,17.60
2018-02-06T00:37:11.494Z,17.50
2018-02-06T00:38:11.471Z,17.00
2018-02-06T00:39:11.441Z,16.50
2018-02-06T00:40:11.421Z,16.40
2018-02-06T00:41:11.391Z,16.50
2018-02-06T00:42:11.365Z,16.80
2018-02-06T00:43:11.391Z,17.60
2018-02-06T00:44:11.312Z,15.90
2018-02-06T00:45:11.290Z,17.10
2018-02-06T00:46:11.266Z,17.50
2018-02-06T00:47:11.240Z,17.30
2018-02-06T00:48:11.219Z,17.50
2018-02-06T00:49:11.190Z,17.30
2018-02-06T00:50:11.170Z,17.30
2018-02-06T00:51:11.141Z,15.90
2018-02-06T00:52:11.119Z,16.80
2018-02-06T00:53:11.090Z,16.10
2018-02-06T00:54:11.080Z,16.80
2018-02-06T00:55:11.040Z,17.30
2018-02-06T00:56:11.016Z,16.90
2018-02-06T00:57:11.000Z,17.00
2018-02-06T00:58:10.966Z,16.10
2018-02-06T00:59:10.944Z,16.30
2018-02-06T01:00:10.915Z,17.10
2018-02-06T01:01:10.907Z,17.20
2018-02-06T01:02:10.866Z,18.10
2018-02-06T01:03:10.840Z,17.80
2018-02-06T01:04:10.815Z,17.80
2018-02-06T01:05:10.789Z,17.40
2018-02-06T01:06:10.766Z,18.00
2018-02-06T01:07:10.739Z,17.60
2018-02-06T01:08:10.716Z,18.70
2018-02-06T01:09:10.690Z,18.00
2018-02-06T01:10:10.667Z,17.30
2018-02-06T01:11:10.640Z,17.50
2018-02-06T01:12:10.612Z,17.70
2018-02-06T01:13:10.588Z,17.10
2018-02-06T01:14:10.564Z,18.20
2018-02-06T01:15:10.541Z,17.80
2018-02-06T01:16:10.506Z,18.30
2018-02-06T01:17:10.484Z,18.10
2018-02-06T01:18:10.464Z,18.00
2018-02-06T01:19:10.453Z,18.30
2018-02-06T01:20:10.408Z,18.20
2018-02-06T01:21:10.430Z,18.00
2018-02-06T01:22:10.358Z,17.50
2018-02-06T01:23:10.439Z,16.90
2018-02-06T01:24:10.313Z,17.30
2018-02-06T01:25:10.341Z,17.30
2018-02-06T01:26:10.263Z,18.00
2018-02-06T01:27:10.252Z,17.70
2018-02-06T01:28:10.216Z,18.30
2018-02-06T01:29:10.287Z,18.10
2018-02-06T01:30:10.167Z,17.00
2018-02-06T01:31:10.286Z,17.60
2018-02-06T01:32:10.116Z,18.10
2018-02-06T01:33:10.186Z,18.90
2018-02-06T01:34:10.060Z,18.10
2018-02-06T01:35:10.184Z,16.50
2018-02-06T01:36:10.011Z,17.60
2018-02-06T01:37:10.038Z,17.20
2018-02-06T01:38:09.964Z,18.20
2018-02-06T01:39:09.938Z,18.80
2018-02-06T01:40:09.910Z,18.30
2018-02-06T01:41:09.890Z,17.50
2018-02-06T01:42:09.860Z,17.50
2018-02-06T01:43:09.838Z,18.40
2018-02-06T01:44:09.805Z,19.70
2018-02-06T01:45:09.787Z,18.50
2018-02-06T01:46:09.765Z,17.80
2018-02-06T01:47:09.728Z,17.70
2018-02-06T01:48:09.700Z,19.80
2018-02-06T01:49:09.679Z,17.90
2018-02-06T01:50:09.649Z,17.80
2018-02-06T01:51:09.629Z,18.50
2018-02-06T01:52:09.600Z,17.80
2018-02-06T01:53:09.584Z,18.20
2018-02-06T01:54:09.548Z,17.50
2018-02-06T01:55:09.522Z,17.80
2018-02-06T01:56:09.502Z,18.80
2018-02-06T01:57:09.470Z,18.30
2018-02-06T01:58:09.450Z,17.60
2018-02-06T01:59:09.424Z,17.40
2018-02-06T02:00:09.393Z,18.20
2018-02-06T02:01:09.370Z,17.90
2018-02-06T02:02:09.345Z,18.70
2018-02-06T02:03:09.318Z,18.80
2018-02-06T02:04:09.299Z,18.40
2018-02-06T02:05:09.267Z,17.20
2018-02-06T02:06:09.242Z,17.20
2018-02-06T02:07:09.213Z,18.20
2018-02-06T02:08:09.190Z,18.30
2018-02-06T02:09:09.163Z,17.50
2018-02-06T02:10:09.137Z,17.10
2018-02-06T02:11:09.115Z,17.80
2018-02-06T02:12:09.089Z,16.70
2018-02-06T02:13:09.066Z,18.20
2018-02-06T02:14:09.050Z,19.60
2018-02-06T02:15:09.010Z,18.40
2018-02-06T02:16:08.990Z,17.70
2018-02-06T02:17:08.960Z,17.70
2018-02-06T02:18:08.936Z,17.80
2018-02-06T02:19:08.909Z,18.60
2018-02-06T02:20:08.886Z,18.80
2018-02-06T02:21:08.860Z,17.30
2018-02-06T02:22:08.832Z,18.10
2018-02-06T02:23:08.809Z,17.60
2018-02-06T02:24:08.778Z,17.30
2018-02-06T02:25:08.756Z,18.50
2018-02-06T02:26:08.728Z,17.30
2018-02-06T02:27:08.712Z,18.20
2018-02-06T02:28:08.679Z,19.50
2018-02-06T02:29:08.659Z,18.40
2018-02-06T02:30:08.630Z,18.30
2018-02-06T02:31:08.611Z,19.20
2018-02-06T02:32:08.576Z,19.40
2018-02-06T02:33:08.549Z,19.70
2018-02-06T02:34:08.579Z,18.40
2018-02-06T02:35:08.504Z,18.90
2018-02-06T02:36:08.472Z,20.20
2018-02-06T02:37:08.447Z,18.10
2018-02-06T02:38:08.433Z,19.80
2018-02-06T02:39:08.396Z,18.80
2018-02-06T02:40:08.443Z,18.20
2018-02-06T02:41:08.348Z,19.50
2018-02-06T04:39:05.295Z,20.50
2018-02-06T04:40:05.269Z,19.60
2018-02-06T04:41:05.243Z,20.40
2018-02-06T04:42:05.220Z,19.10
2018-02-06T04:43:05.200Z,19.80
2018-02-06T04:44:05.167Z,18.30
2018-02-06T04:45:05.145Z,20.00
2018-02-06T04:46:05.119Z,19.40
2018-02-06T04:47:05.089Z,19.50
2018-02-06T04:48:05.065Z,20.00
2018-02-06T04:49:05.039Z,20.10
2018-02-06T04:50:05.010Z,20.10
2018-02-06T04:51:04.987Z,19.50
2018-02-06T04:52:04.959Z,20.10
2018-02-06T04:53:04.952Z,19.50
2018-02-06T04:54:04.911Z,20.70
2018-02-06T04:55:04.880Z,18.90
2018-02-06T04:56:04.864Z,19.40
2018-02-06T04:57:04.829Z,18.90
2018-02-06T04:58:04.834Z,19.80
2018-02-06T04:59:04.782Z,19.50
2018-02-06T05:00:04.754Z,19.60
2018-02-06T05:01:04.732Z,20.80
2018-02-06T05:02:04.703Z,20.40
2018-02-06T05:03:04.676Z,20.30
2018-02-06T05:04:04.650Z,19.80
2018-02-06T05:05:04.625Z,20.30
2018-02-06T05:06:04.596Z,20.50
2018-02-06T05:07:04.570Z,20.40
2018-02-06T05:08:04.541Z,19.90
2018-02-06T05:09:04.518Z,19.70
2018-02-06T05:10:04.497Z,21.20
2018-02-06T05:11:04.506Z,19.20
2018-02-06T05:12:04.441Z,19.80
2018-02-06T05:13:04.416Z,18.80
2018-02-06T05:14:04.387Z,19.40
2018-02-06T05:15:04.361Z,19.60
2018-02-06T05:16:04.336Z,20.40
2018-02-06T05:17:04.311Z,20.10
2018-02-06T05:18:04.292Z,19.90
2018-02-06T05:19:04.260Z,19.70
2018-02-06T05:20:04.234Z,19.80
2018-02-06T05:21:04.212Z,20.20
2018-02-06T05:22:04.180Z,19.30
2018-02-06T05:23:04.160Z,20.20
2018-02-06T05:24:04.126Z,20.00
2018-02-06T05:25:04.105Z,20.10
2018-02-06T05:26:04.078Z,19.80
2018-02-06T05:27:04.061Z,19.60
2018-02-06T05:28:04.032Z,18.80
2018-02-06T05:29:03.999Z,19.40
2018-02-06T05:30:03.973Z,20.20
2018-02-06T05:31:03.946Z,20.70
2018-02-06T05:32:03.919Z,21.70
2018-02-06T05:33:03.894Z,26.70
2018-02-06T05:34:03.874Z,26.00
2018-02-06T05:35:03.842Z,22.40
2018-02-06T05:36:03.827Z,21.00
2018-02-06T05:37:03.796Z,22.80
2018-02-06T05:38:03.769Z,20.50
2018-02-06T05:39:03.741Z,19.50
2018-02-06T05:40:03.717Z,20.40
2018-02-06T05:41:03.689Z,19.40
2018-02-06T05:42:03.660Z,19.20
2018-02-06T05:43:03.637Z,20.20
2018-02-06T05:44:03.610Z,19.80
2018-02-06T05:45:03.585Z,18.90
2018-02-06T05:46:03.560Z,18.40
2018-02-06T05:47:03.540Z,19.50
2018-02-06T05:48:03.505Z,18.20
2018-02-06T05:49:03.479Z,19.90
2018-02-06T05:50:03.453Z,19.70
2018-02-06T05:51:03.428Z,18.70
2018-02-06T05:52:03.406Z,20.20
2018-02-06T05:53:03.375Z,20.30
2018-02-06T05:54:03.359Z,19.10
2018-02-06T05:55:03.326Z,20.30
2018-02-06T05:56:03.299Z,20.00
2018-02-06T05:57:03.278Z,20.60
2018-02-06T05:58:03.251Z,19.10
2018-02-06T05:59:03.221Z,19.80
2018-02-06T06:00:03.198Z,18.60
2018-02-06T06:01:03.170Z,19.80
2018-02-06T06:02:03.148Z,18.90
2018-02-06T06:03:03.124Z,19.40
2018-02-06T06:04:03.090Z,19.20
2018-02-06T06:05:03.074Z,19.80
2018-02-06T06:06:03.040Z,19.00
2018-02-06T06:07:03.009Z,18.40
2018-02-06T06:08:02.988Z,19.20
2018-02-06T06:09:02.960Z,19.50
2018-02-06T06:10:02.935Z,18.70
2018-02-06T06:11:02.915Z,19.30
2018-02-06T06:12:02.881Z,19.50
2018-02-06T06:13:02.859Z,19.40
2018-02-06T06:14:02.830Z,19.10
2018-02-06T06:15:02.802Z,19.90
2018-02-06T06:16:02.780Z,19.90
2018-02-06T06:17:02.760Z,19.70
2018-02-06T06:18:02.728Z,19.50
2018-02-06T06:19:02.700Z,18.60
2018-02-06T06:20:02.678Z,19.30
2018-02-06T06:21:02.649Z,19.00
2018-02-06T06:22:02.622Z,19.30
2018-02-06T06:23:02.598Z,19.60
2018-02-06T06:24:02.570Z,19.40
2018-02-06T06:25:02.548Z,18.80
2018-02-06T06:26:02.530Z,18.60
2018-02-06T06:27:02.490Z,18.90
2018-02-06T06:28:02.466Z,19.60
2018-02-06T06:29:02.439Z,20.40
2018-02-06T06:30:02.420Z,18.50
2018-02-06T06:31:02.391Z,19.00
2018-02-06T06:32:02.364Z,18.60
2018-02-06T06:33:02.339Z,19.30
2018-02-06T06:34:02.310Z,19.70
2018-02-06T06:35:02.289Z,19.10
2018-02-06T06:36:02.257Z,19.60
2018-02-06T06:37:02.232Z,19.10
2018-02-06T06:38:02.205Z,18.90
2018-02-06T06:39:02.180Z,20.00
2018-02-06T06:40:02.151Z,19.10
2018-02-06T06:41:02.129Z,18.90
2018-02-06T06:42:02.100Z,19.30
2018-02-06T06:43:02.074Z,19.30
2018-02-06T06:44:02.049Z,18.90
2018-02-06T06:45:02.024Z,19.80
2018-02-06T06:46:01.997Z,19.50
2018-02-06T06:47:01.969Z,19.30
2018-02-06T06:48:01.948Z,17.90
2018-02-06T06:49:01.918Z,19.00
2018-02-06T06:50:01.910Z,19.50
2018-02-06T06:51:01.873Z,19.30
2018-02-06T06:52:01.840Z,18.90
2018-02-06T06:53:01.815Z,20.50
2018-02-06T06:54:01.790Z,18.70
2018-02-06T06:55:02.034Z,18.60
2018-02-06T06:56:01.746Z,19.50
2018-02-06T06:57:01.709Z,19.00
2018-02-06T06:58:01.687Z,18.60
2018-02-06T06:59:01.660Z,18.50
2018-02-06T07:00:01.630Z,19.70
2018-02-06T07:01:01.605Z,18.60
2018-02-06T07:02:01.579Z,18.60
2018-02-06T07:03:01.551Z,18.00
2018-02-06T07:04:01.526Z,19.00
2018-02-06T07:05:01.501Z,18.40
2018-02-06T07:06:01.474Z,18.20
2018-02-06T07:07:01.447Z,18.40
2018-02-06T07:08:01.430Z,20.10
2018-02-06T07:09:01.401Z,18.80
2018-02-06T07:10:01.371Z,19.30
2018-02-06T07:11:01.348Z,18.50
2018-02-06T07:12:01.319Z,18.70
2018-02-06T07:13:01.293Z,19.20
2018-02-06T07:14:01.268Z,19.30
2018-02-06T07:15:01.241Z,19.40
2018-02-06T07:16:01.270Z,18.50
2018-02-06T07:17:01.189Z,19.60
2018-02-06T07:18:01.163Z,18.90
2018-02-06T07:19:01.145Z,19.60
2018-02-06T07:20:01.112Z,18.90
2018-02-06T07:21:01.086Z,19.40
2018-02-06T07:22:01.070Z,20.30
2018-02-06T07:23:01.031Z,19.40
2018-02-06T07:24:01.008Z,19.20
2018-02-06T07:25:00.980Z,18.70
2018-02-06T07:26:00.960Z,18.40
2018-02-06T07:27:00.929Z,18.90
2018-02-06T07:28:00.904Z,18.60
2018-02-06T07:29:00.888Z,19.90
2018-02-06T07:30:00.852Z,18.80
2018-02-06T07:31:00.827Z,18.60
2018-02-06T07:32:00.802Z,18.30
2018-02-06T07:33:00.776Z,17.50
2018-02-06T07:34:00.749Z,18.40
2018-02-06T07:35:00.723Z,17.90
2018-02-06T07:36:00.705Z,19.30
2018-02-06T07:37:00.674Z,19.70
2018-02-06T07:38:00.650Z,18.40
2018-02-06T07:39:00.623Z,19.60
2018-02-06T07:40:00.595Z,18.70
2018-02-06T07:41:00.577Z,18.70
2018-02-06T07:42:00.551Z,18.80
2018-02-06T07:43:00.520Z,19.00
2018-02-06T07:44:00.494Z,17.50
2018-02-06T07:45:00.481Z,19.60
2018-02-06T07:46:00.442Z,18.10
2018-02-06T07:47:00.419Z,18.20
2018-02-06T07:48:00.390Z,18.30
2018-02-06T07:49:00.366Z,19.60
2018-02-06T07:50:00.339Z,17.00
2018-02-06T07:51:00.325Z,18.70
2018-02-06T07:52:00.287Z,17.80
2018-02-06T07:53:00.288Z,18.20
2018-02-06T07:54:00.245Z,19.00
2018-02-06T07:55:00.213Z,19.00
2018-02-06T07:56:00.189Z,16.80
2018-02-06T07:57:00.160Z,17.60
2018-02-06T07:58:00.137Z,18.00
2018-02-06T07:59:00.115Z,18.30
2018-02-06T08:00:00.093Z,17.00
2018-02-06T08:01:00.066Z,17.70
2018-02-06T08:02:00.052Z,17.90
2018-02-06T08:03:00.014Z,17.60
2018-02-06T08:03:59.994Z,17.60
2018-02-06T08:04:59.966Z,17.80
2018-02-06T08:05:59.941Z,18.70
2018-02-06T08:06:59.928Z,17.70
2018-02-06T08:07:59.899Z,17.70
2018-02-06T08:08:59.869Z,17.40
2018-02-06T08:09:59.840Z,17.80
2018-02-06T08:10:59.821Z,16.70
2018-02-06T08:11:59.836Z,17.70
2018-02-06T08:12:59.769Z,16.90
2018-02-06T08:13:59.744Z,18.00
2018-02-06T08:14:59.719Z,17.10
2018-02-06T08:15:59.694Z,17.10
2018-02-06T08:16:59.679Z,16.90
2018-02-06T08:17:59.659Z,17.40
2018-02-06T08:18:59.631Z,17.00
2018-02-06T08:19:59.611Z,16.70
2018-02-06T08:20:59.583Z,16.00
2018-02-06T08:21:59.562Z,16.30
2018-02-06T08:22:59.561Z,16.20
2018-02-06T08:23:59.523Z,17.50
2018-02-06T08:24:59.507Z,16.20
2018-02-06T08:25:59.481Z,16.90
2018-02-06T08:26:59.470Z,16.00
2018-02-06T08:27:59.444Z,16.40
2018-02-06T08:28:59.427Z,15.60
2018-02-06T08:29:59.412Z,16.10
2018-02-06T08:30:59.387Z,16.30
2018-02-06T08:31:59.371Z,16.10
2018-02-06T08:32:59.346Z,16.30
2018-02-06T08:33:59.327Z,15.60
2018-02-06T08:34:59.311Z,16.60
2018-02-06T08:35:59.292Z,14.90
2018-02-06T08:36:59.281Z,16.70
2018-02-06T08:37:59.260Z,17.00
2018-02-06T08:38:59.239Z,16.10
2018-02-06T08:39:59.220Z,16.20
2018-02-06T08:40:59.201Z,15.20
2018-02-06T08:41:59.188Z,15.40
2018-02-06T08:42:59.169Z,15.80
2018-02-06T08:43:59.151Z,15.70
2018-02-06T08:44:59.136Z,15.00
2018-02-06T08:45:59.119Z,15.70
2018-02-06T08:46:59.098Z,15.60
2018-02-06T08:47:59.082Z,15.10
2018-02-06T08:48:59.064Z,15.20
2018-02-06T08:49:59.062Z,15.10
2018-02-06T08:50:59.033Z,14.90
2018-02-06T08:51:59.031Z,15.70
2018-02-06T08:52:58.999Z,15.90
2018-02-06T08:53:58.999Z,16.00
2018-02-06T08:54:58.959Z,16.00
2018-02-06T08:55:58.949Z,15.50
2018-02-06T08:56:58.930Z,14.60
2018-02-06T08:57:58.908Z,15.80
2018-02-06T08:58:58.890Z,15.60
2018-02-06T08:59:58.871Z,15.20
2018-02-06T09:00:58.847Z,15.60
2018-02-06T09:01:58.829Z,16.20
2018-02-06T09:02:58.820Z,16.20
2018-02-06T09:03:58.792Z,16.30
2018-02-06T09:04:58.773Z,15.40
2018-02-06T09:05:58.750Z,15.40
2018-02-06T09:06:58.730Z,15.00
2018-02-06T09:07:58.712Z,15.20
2018-02-06T09:08:58.698Z,15.70
2018-02-06T09:09:58.669Z,15.60
2018-02-06T09:10:58.652Z,15.60
2018-02-06T09:11:58.629Z,15.30
2018-02-06T09:12:58.608Z,15.40
2018-02-06T09:13:58.597Z,15.70
2018-02-06T09:14:58.570Z,16.50
2018-02-06T09:15:58.553Z,15.10
2018-02-06T09:16:58.527Z,15.80
2018-02-06T09:17:58.509Z,15.60
2018-02-06T09:18:58.486Z,15.60
2018-02-06T09:19:58.467Z,15.40
2018-02-06T09:20:58.446Z,15.40
2018-02-06T09:21:58.443Z,15.50
2018-02-06T09:22:58.409Z,15.30
2018-02-06T09:23:58.382Z,14.50
2018-02-06T09:24:58.365Z,16.00
2018-02-06T09:25:58.349Z,15.70
2018-02-06T09:26:58.343Z,16.30
2018-02-06T09:27:58.311Z,15.90
2018-02-06T09:28:58.294Z,16.00
2018-02-06T09:29:58.262Z,15.40
2018-02-06T09:30:58.245Z,15.30
2018-02-06T09:31:58.241Z,15.40
2018-02-06T09:32:58.209Z,15.90
2018-02-06T09:33:58.187Z,15.80
2018-02-06T09:34:58.184Z,15.80
2018-02-06T09:35:58.149Z,15.50
2018-02-06T09:36:58.127Z,15.50
2018-02-06T09:37:58.109Z,15.70
2018-02-06T09:38:58.086Z,16.10
2018-02-06T09:39:58.069Z,16.40
2018-02-06T09:40:58.048Z,15.20
2018-02-06T09:41:58.029Z,16.50
2018-02-06T09:42:58.010Z,15.40
2018-02-06T09:43:57.989Z,16.20
2018-02-06T09:44:57.979Z,15.50
2018-02-06T09:45:57.953Z,15.20
2018-02-06T09:46:57.940Z,16.10
2018-02-06T09:47:57.920Z,15.90
2018-02-06T09:48:57.898Z,16.10
2018-02-06T09:49:57.882Z,15.80
2018-02-06T09:50:57.868Z,16.50
2018-02-06T09:51:57.846Z,16.40
2018-02-06T09:52:57.835Z,15.40
2018-02-06T09:53:57.812Z,15.30
2018-02-06T09:54:57.804Z,15.60
2018-02-06T09:55:57.823Z,15.70
2018-02-06T09:56:57.759Z,16.20
2018-02-06T09:57:57.743Z,16.40
2018-02-06T09:58:57.729Z,16.00
2018-02-06T09:59:57.703Z,15.90
2018-02-06T10:00:57.693Z,16.00
2018-02-06T10:01:57.674Z,16.10
2018-02-06T10:02:57.660Z,16.50
2018-02-06T10:03:57.637Z,16.40
2018-02-06T10:04:57.623Z,16.50
2018-02-06T10:05:57.598Z,15.80
2018-02-06T10:06:57.581Z,16.10
2018-02-06T10:07:57.569Z,15.80
2018-02-06T10:08:57.548Z,16.30
2018-02-06T10:09:57.533Z,16.70
2018-02-06T10:10:57.511Z,16.20
2018-02-06T10:11:57.491Z,16.80
2018-02-06T10:12:57.473Z,16.50
2018-02-06T10:13:57.450Z,15.70
2018-02-06T10:14:57.437Z,16.20
2018-02-06T10:15:57.458Z,15.90
2018-02-06T10:16:57.394Z,16.70
2018-02-06T10:17:57.373Z,16.60
2018-02-06T10:18:57.353Z,17.30
2018-02-06T10:19:57.332Z,16.30
2018-02-06T10:20:57.309Z,15.70
2018-02-06T10:21:57.293Z,16.70
2018-02-06T10:22:57.268Z,16.40
2018-02-06T10:23:57.255Z,16.50
2018-02-06T10:24:57.230Z,17.10
2018-02-06T10:25:57.210Z,16.40
2018-02-06T10:26:57.188Z,16.40
2018-02-06T10:27:57.170Z,17.40
2018-02-06T10:28:57.149Z,16.50
2018-02-06T10:29:57.131Z,16.80
2018-02-06T10:30:57.110Z,16.60
2018-02-06T10:31:57.090Z,17.30
2018-02-06T10:32:57.081Z,16.60
2018-02-06T10:33:57.051Z,16.20
2018-02-06T10:34:57.031Z,16.20
2018-02-06T10:35:57.009Z,16.70
2018-02-06T10:36:56.990Z,16.40
2018-02-06T10:37:56.982Z,16.10
2018-02-06T10:38:56.950Z,15.30
2018-02-06T10:39:56.931Z,16.00
2018-02-06T10:40:56.922Z,15.90
2018-02-06T10:41:56.890Z,16.70
2018-02-06T10:42:56.873Z,16.60
2018-02-06T10:43:56.856Z,16.10
2018-02-06T10:44:56.842Z,16.60
2018-02-06T10:45:56.818Z,17.00
2018-02-06T10:46:56.795Z,16.80
2018-02-06T10:47:56.777Z,16.10
2018-02-06T10:48:56.757Z,16.70
2018-02-06T10:49:56.740Z,16.90
2018-02-06T10:50:56.717Z,16.10
2018-02-06T10:51:56.696Z,17.80
2018-02-06T10:52:56.709Z,16.30
2018-02-06T10:53:56.656Z,16.80
2018-02-06T10:54:56.642Z,16.20
2018-02-06T10:55:56.615Z,16.30
2018-02-06T10:56:56.600Z,16.90
2018-02-06T10:57:56.589Z,16.50
2018-02-06T10:58:56.560Z,16.80
2018-02-06T10:59:56.539Z,17.20
2018-02-06T11:00:56.517Z,16.80
2018-02-06T11:01:56.505Z,17.40
2018-02-06T11:02:56.475Z,16.80
2018-02-06T11:03:56.453Z,16.30
2018-02-06T11:04:56.432Z,16.60
2018-02-06T11:05:56.414Z,17.30
2018-02-06T11:06:56.393Z,16.80
2018-02-06T11:07:56.380Z,17.10
2018-02-06T11:08:56.359Z,17.20
2018-02-06T11:09:56.345Z,17.20
2018-02-06T11:10:56.310Z,16.30
2018-02-06T11:11:56.289Z,16.70
2018-02-06T11:12:56.268Z,17.10
2018-02-06T11:13:56.248Z,16.00
2018-02-06T11:14:56.231Z,16.80
2018-02-06T11:15:56.210Z,16.10
2018-02-06T11:16:56.189Z,16.50
2018-02-06T11:17:56.169Z,16.60
2018-02-06T11:18:56.148Z,15.00
2018-02-06T11:19:56.169Z,16.50
2018-02-06T11:20:56.104Z,16.30
2018-02-06T11:21:56.088Z,16.10
2018-02-06T11:22:56.063Z,15.80
2018-02-06T11:23:56.047Z,16.40
2018-02-06T11:24:56.030Z,16.40
2018-02-06T11:25:56.013Z,16.50
2018-02-06T11:26:55.983Z,15.70
2018-02-06T11:27:55.958Z,15.70
2018-02-06T11:28:55.938Z,16.40
2018-02-06T11:29:55.919Z,16.40
2018-02-06T11:30:55.908Z,16.40
2018-02-06T11:31:55.876Z,17.70
2018-02-06T11:32:55.854Z,15.80
2018-02-06T11:33:55.833Z,16.90
2018-02-06T11:34:55.817Z,16.00
2018-02-06T11:35:55.794Z,16.70
2018-02-06T11:36:55.770Z,16.30
2018-02-06T11:37:55.757Z,16.70
2018-02-06T11:38:55.733Z,16.40
2018-02-06T11:39:55.708Z,15.50
2018-02-06T11:40:55.687Z,16.00
2018-02-06T11:41:55.672Z,17.60
2018-02-06T11:42:55.644Z,17.60
2018-02-06T11:43:55.625Z,16.40
2018-02-06T11:44:55.605Z,15.90
2018-02-06T11:45:55.584Z,16.10
2018-02-06T11:46:55.574Z,17.40
2018-02-06T11:47:55.539Z,17.00
2018-02-06T11:48:55.527Z,16.20
2018-02-06T11:49:55.500Z,16.70
2018-02-06T11:50:55.484Z,15.90
2018-02-06T11:51:55.456Z,16.30
2018-02-06T11:52:55.441Z,16.30
2018-02-06T11:53:55.415Z,15.90
2018-02-06T11:54:55.443Z,17.10
2018-02-06T11:55:55.373Z,15.30
2018-02-06T11:56:55.409Z,15.60
2018-02-06T11:57:55.338Z,16.60
2018-02-06T11:58:55.334Z,16.50
2018-02-06T11:59:55.296Z,16.10
2018-02-06T12:00:55.324Z,16.20
2018-02-06T12:01:55.250Z,15.50
2018-02-06T12:02:55.239Z,16.50
2018-02-06T12:03:55.209Z,15.30
2018-02-06T12:04:55.286Z,16.10
2018-02-06T12:05:55.165Z,15.50
2018-02-06T12:06:55.143Z,15.50
2018-02-06T12:07:55.118Z,15.30
2018-02-06T12:08:55.098Z,15.80
2018-02-06T12:09:55.078Z,15.40
2018-02-06T12:10:55.054Z,15.50
2018-02-06T12:11:55.045Z,15.30
2018-02-06T12:12:55.025Z,15.10
2018-02-06T12:13:55.011Z,15.70
2018-02-06T12:14:54.971Z,14.50
2018-02-06T12:15:54.948Z,15.40
2018-02-06T12:16:54.938Z,16.50
2018-02-06T12:17:54.912Z,15.20
2018-02-06T12:18:54.887Z,15.10
2018-02-06T12:19:54.888Z,15.90
2018-02-06T12:20:54.848Z,14.80
2018-02-06T12:21:54.832Z,15.40
2018-02-06T12:22:54.820Z,15.50
2018-02-06T12:23:54.789Z,15.60
2018-02-06T12:24:54.765Z,14.90
2018-02-06T12:25:54.752Z,14.50
2018-02-06T12:26:54.739Z,14.60
2018-02-06T12:27:54.709Z,15.30
2018-02-06T12:28:54.689Z,15.50
2018-02-06T12:29:54.675Z,15.20
2018-02-06T12:30:54.650Z,14.10
2018-02-06T12:31:54.637Z,14.20
2018-02-06T12:32:54.619Z,16.00
2018-02-06T12:33:54.599Z,14.70
2018-02-06T12:34:54.579Z,14.90
2018-02-06T12:35:54.560Z,14.20
2018-02-06T12:36:54.540Z,14.90
2018-02-06T12:37:54.517Z,14.50
2018-02-06T12:38:54.509Z,14.00
2018-02-06T12:39:54.487Z,14.80
2018-02-06T12:40:54.465Z,14.60
2018-02-06T12:41:54.444Z,14.60
2018-02-06T12:42:54.428Z,14.40
2018-02-06T12:43:54.405Z,14.70
2018-02-06T12:44:54.388Z,15.10
2018-02-06T12:45:54.371Z,14.90
2018-02-06T12:46:54.348Z,15.20
2018-02-06T12:47:54.336Z,14.80
2018-02-06T12:48:54.318Z,14.40
2018-02-06T12:49:54.297Z,14.80
2018-02-06T12:50:54.278Z,14.70
2018-02-06T12:51:54.258Z,14.40
2018-02-06T12:52:54.236Z,14.90
2018-02-06T12:53:54.214Z,14.90
2018-02-06T12:54:54.199Z,15.10
2018-02-06T12:55:54.172Z,14.40
2018-02-06T12:56:54.201Z,14.20
2018-02-06T12:57:54.129Z,14.20
2018-02-06T12:58:54.111Z,14.80
2018-02-06T12:59:54.097Z,14.10
2018-02-06T13:00:54.168Z,14.70
2018-02-06T13:01:54.050Z,15.00
2018-02-06T13:02:54.035Z,14.70
2018-02-06T13:03:54.018Z,15.50
2018-02-06T13:04:54.098Z,15.20
2018-02-06T13:05:53.966Z,15.20
2018-02-06T13:06:54.049Z,14.90
2018-02-06T13:07:53.927Z,14.00
2018-02-06T13:08:53.996Z,14.70
2018-02-06T13:09:53.888Z,14.90
2018-02-06T13:10:53.965Z,14.90
2018-02-06T13:11:53.853Z,14.80
2018-02-06T13:12:53.921Z,15.00
2018-02-06T13:13:53.797Z,15.00
2018-02-06T13:14:53.883Z,14.90
2018-02-06T13:15:53.758Z,15.10
2018-02-06T13:16:53.738Z,15.70
2018-02-06T13:17:53.718Z,15.30
2018-02-06T13:18:53.796Z,14.60
2018-02-06T13:19:53.677Z,15.40
2018-02-06T13:20:53.801Z,15.10
2018-02-06T13:21:53.633Z,15.80
2018-02-06T13:22:53.612Z,15.00
2018-02-06T13:23:53.591Z,15.00
2018-02-06T13:24:53.687Z,15.30
2018-02-06T13:25:53.546Z,14.70
2018-02-06T13:26:53.616Z,15.50
2018-02-06T13:27:53.508Z,14.90
2018-02-06T13:28:53.592Z,15.40
2018-02-06T13:29:53.471Z,15.20
2018-02-06T13:30:53.448Z,16.20
2018-02-06T13:31:53.419Z,15.20
2018-02-06T13:32:53.401Z,15.40
2018-02-06T13:33:53.379Z,16.00
2018-02-06T13:34:53.355Z,15.50
2018-02-06T13:35:53.337Z,16.20
2018-02-06T13:36:53.327Z,15.60
2018-02-06T13:37:53.294Z,16.40
2018-02-06T13:38:53.278Z,15.50
2018-02-06T13:39:53.248Z,15.80
2018-02-06T13:40:53.224Z,15.10
2018-02-06T13:41:53.201Z,16.20
2018-02-06T13:42:53.188Z,15.80
2018-02-06T13:43:53.158Z,15.20
2018-02-06T13:44:53.145Z,16.20
2018-02-06T13:45:53.121Z,15.80
2018-02-06T13:46:53.098Z,15.80
2018-02-06T13:47:53.087Z,15.70
2018-02-06T13:48:53.051Z,16.00
2018-02-06T13:49:53.028Z,15.30
2018-02-06T13:50:53.011Z,15.60
2018-02-06T13:51:52.989Z,16.70
2018-02-06T13:52:52.969Z,16.40
2018-02-06T13:53:52.961Z,15.70
2018-02-06T13:54:52.923Z,14.30
2018-02-06T13:55:52.900Z,14.20
2018-02-06T13:56:52.878Z,14.90
2018-02-06T13:57:52.857Z,14.10
2018-02-06T13:58:52.836Z,14.40
2018-02-06T13:59:52.868Z,14.50
2018-02-06T14:00:52.788Z,14.40
2018-02-06T14:01:52.773Z,14.10
2018-02-06T14:02:52.752Z,14.40
2018-02-06T14:03:52.733Z,14.20
2018-02-06T14:04:52.708Z,14.30
2018-02-06T14:05:52.675Z,14.30
2018-02-06T14:06:52.653Z,14.30
2018-02-06T14:07:52.629Z,14.40
2018-02-06T14:08:52.609Z,14.90
2018-02-06T14:09:52.603Z,14.30
2018-02-06T14:10:52.560Z,14.90
2018-02-06T14:11:52.549Z,15.80
2018-02-06T14:12:52.534Z,15.50
2018-02-06T14:13:52.496Z,14.10
2018-02-06T14:14:52.469Z,14.70
2018-02-06T14:15:52.458Z,15.60
2018-02-06T14:16:52.427Z,15.50
2018-02-06T14:17:52.408Z,17.60
2018-02-06T14:18:52.383Z,17.00
2018-02-06T14:19:52.359Z,17.10
2018-02-06T14:20:52.340Z,20.10
2018-02-06T14:21:52.323Z,20.40
2018-02-06T14:22:52.297Z,20.50
2018-02-06T14:23:52.273Z,19.70
2018-02-06T14:24:52.250Z,19.00
2018-02-06T14:25:52.235Z,21.00
2018-02-06T14:26:52.202Z,19.00
2018-02-06T14:27:52.184Z,19.70
2018-02-06T14:28:52.170Z,19.70
2018-02-06T14:29:52.184Z,19.40
2018-02-06T14:30:52.113Z,18.80
2018-02-06T14:31:52.097Z,18.80
2018-02-06T14:32:52.069Z,19.10
2018-02-06T14:33:52.054Z,17.10
2018-02-06T14:34:52.025Z,17.70
2018-02-06T14:35:52.004Z,16.60
2018-02-06T14:36:51.978Z,16.10
2018-02-06T14:37:51.957Z,15.70
2018-02-06T14:38:51.938Z,16.10
2018-02-06T14:39:51.909Z,15.20
2018-02-06T14:40:51.889Z,15.40
2018-02-06T14:41:51.889Z,15.40
2018-02-06T14:42:51.842Z,15.50
2018-02-06T14:43:51.816Z,16.00
2018-02-06T14:44:51.798Z,16.40
2018-02-06T14:45:51.781Z,15.40
2018-02-06T14:46:51.753Z,15.80
2018-02-06T14:47:51.729Z,15.60
2018-02-06T14:48:51.706Z,15.70